Time;durP1;ratioP1;P1;durP2;ratioP2;P2;SDS_P1;SDS_P2;PMS_P1;PMS_P2;Temp;Humidity;BMP_temperature;BMP_pressure;BME280_temperature;BME280_humidity;BME280_pressure;Samples;Min_cycle;Max_cycle;Signal;HPM_P1;HPM_P2
2022/09/28 00:01:11;;;;;;;8.33;4.05;;;;;;;11.77;87.33;94146.19;1792299;80;21498;-69
2022/09/28 00:03:37;;;;;;;9.03;4.17;;;;;;;11.77;86.94;94160.72;1791806;80;21015;-69
2022/09/28 00:06:08;;;;;;;6.75;4.10;;;;;;;11.77;86.95;94154.12;1791953;80;21016;-69
2022/09/28 00:08:35;;;;;;;6.97;4.30;;;;;;;11.78;86.50;94149.24;1749421;82;21490;-69
2022/09/28 00:11:04;;;;;;;7.20;3.70;;;;;;;11.72;86.69;94151.72;1711719;84;20997;-69
2022/09/28 00:13:32;;;;;;;5.15;3.90;;;;;;;11.64;86.85;94149.86;1736603;83;21003;-69
2022/09/28 00:16:06;;;;;;;5.20;4.30;;;;;;;11.60;86.60;94161.05;1749523;81;21036;-69
2022/09/28 00:18:35;;;;;;;9.70;4.40;;;;;;;11.64;87.10;94161.31;1707891;84;21043;-69
2022/09/28 00:21:11;;;;;;;5.92;4.00;;;;;;;11.68;87.20;94160.70;1736394;83;21086;-68
2022/09/28 00:24:11;;;;;;;5.58;4.35;;;;;;;11.67;86.99;94150.59;1736252;82;21058;-69
2022/09/28 00:26:08;;;;;;;5.95;3.62;;;;;;;11.67;86.97;94151.92;1731614;83;21050;-69
2022/09/28 00:28:34;;;;;;;9.28;4.00;;;;;;;11.65;86.70;94155.56;1757214;81;21036;-69
2022/09/28 00:31:01;;;;;;;8.88;3.50;;;;;;;11.61;86.78;94146.90;1720002;83;20994;-67
2022/09/28 00:33:28;;;;;;;5.62;3.10;;;;;;;11.56;86.65;94144.93;1736325;83;21043;-68
2022/09/28 00:35:57;;;;;;;7.87;3.17;;;;;;;11.55;86.95;94143.70;1757217;82;21056;-69
2022/09/28 00:38:27;;;;;;;7.80;2.80;;;;;;;11.51;86.58;94144.75;1718973;83;21079;-69
2022/09/28 00:40:54;;;;;;;4.40;3.02;;;;;;;11.50;87.14;94141.27;1736738;83;20998;-69
2022/09/28 00:43:23;;;;;;;6.65;3.70;;;;;;;11.48;87.11;94140.00;1757334;82;21060;-69
2022/09/28 00:46:03;;;;;;;5.25;4.00;;;;;;;11.46;86.97;94151.56;1719782;83;21030;-69
2022/09/28 00:48:35;;;;;;;4.67;3.12;;;;;;;11.46;87.14;94148.48;1736723;83;21467;-68
2022/09/28 00:51:06;;;;;;;7.55;3.33;;;;;;;11.46;87.11;94148.92;1736233;82;21521;-69
2022/09/28 00:53:37;;;;;;;8.78;3.42;;;;;;;11.42;87.29;94146.04;1736397;83;21006;-69
2022/09/28 00:56:10;;;;;;;4.12;3.20;;;;;;;11.44;87.32;94142.84;1757727;81;21039;-69
2022/09/28 00:58:41;;;;;;;5.45;3.40;;;;;;;11.47;87.43;94140.09;1715102;83;21564;-69
2022/09/28 01:01:07;;;;;;;5.15;3.62;;;;;;;11.46;87.43;94129.99;1735402;83;21030;-69
2022/09/28 01:03:34;;;;;;;8.70;3.50;;;;;;;11.46;87.01;94137.92;1757301;82;21009;-68
2022/09/28 01:06:05;;;;;;;5.28;3.55;;;;;;;11.52;87.12;94135.92;1719470;83;21023;-69
2022/09/28 01:08:33;;;;;;;6.40;4.20;;;;;;;11.50;87.23;94139.94;1736424;83;21529;-68
2022/09/28 01:11:01;;;;;;;9.25;4.42;;;;;;;11.43;87.62;94152.55;1757335;82;21542;-68
2022/09/28 01:13:30;;;;;;;7.00;4.45;;;;;;;11.46;87.90;94149.80;1719409;83;21077;-68
2022/09/28 01:16:19;;;;;;;6.87;3.98;;;;;;;11.52;87.99;94146.02;1736616;83;21034;-68
2022/09/28 01:19:27;;;;;;;8.05;4.50;;;;;;;11.59;87.95;94144.81;1736233;83;21050;-68
2022/09/28 01:22:16;;;;;;;10.18;5.03;;;;;;;11.63;87.89;94147.69;1735109;83;21018;-69
2022/09/28 01:24:55;;;;;;;11.30;4.28;;;;;;;11.61;87.65;94153.97;1757247;82;21039;-69
2022/09/28 01:27:46;;;;;;;10.68;4.08;;;;;;;11.68;88.00;94164.19;1719391;83;21082;-69
2022/09/28 01:30:19;;;;;;;5.78;4.12;;;;;;;11.67;87.68;94173.52;1736577;83;21038;-69
2022/09/28 01:33:06;;;;;;;11.15;3.98;;;;;;;11.64;87.59;94173.20;1757505;82;21012;-69
2022/09/28 01:35:51;;;;;;;7.60;3.67;;;;;;;11.68;87.94;94173.44;1719316;83;21038;-69
2022/09/28 01:38:24;;;;;;;6.25;3.80;;;;;;;11.75;87.84;94178.46;1736545;83;21034;-69
2022/09/28 01:40:53;;;;;;;6.20;4.05;;;;;;;11.72;87.83;94175.93;1705677;83;21011;-69
2022/09/28 01:43:24;;;;;;;8.05;4.00;;;;;;;11.70;88.12;94172.91;1736032;83;21063;-69
2022/09/28 01:46:04;;;;;;;8.48;3.75;;;;;;;11.73;88.27;94172.38;1736613;83;21041;-68
2022/09/28 01:48:36;;;;;;;9.80;4.72;;;;;;;11.74;88.41;94173.61;1736282;83;21137;-68
2022/09/28 01:51:08;;;;;;;4.60;4.12;;;;;;;11.74;88.63;94169.64;1757358;82;21032;-68
2022/09/28 01:53:46;;;;;;;9.23;4.78;;;;;;;11.77;88.37;94180.10;1719740;83;21062;-68
2022/09/28 01:56:20;;;;;;;6.33;4.22;;;;;;;11.81;88.50;94179.02;1736316;83;21109;-68
2022/09/28 01:58:55;;;;;;;6.85;4.20;;;;;;;11.85;88.35;94178.42;1736015;83;21547;-69
2022/09/28 02:01:29;;;;;;;4.97;3.62;;;;;;;11.85;88.30;94175.31;1736552;83;21504;-69
2022/09/28 02:04:07;;;;;;;4.28;3.70;;;;;;;11.92;88.38;94174.61;1757107;81;20992;-69
2022/09/28 02:06:45;;;;;;;6.35;3.40;;;;;;;11.98;88.21;94171.67;1719797;83;21042;-68
2022/09/28 02:09:20;;;;;;;3.10;2.80;;;;;;;12.02;88.33;94181.62;1726379;83;21028;-68
2022/09/28 02:11:52;;;;;;;4.15;3.30;;;;;;;12.06;87.82;94178.77;1757641;81;21021;-68
2022/09/28 02:14:21;;;;;;;5.75;3.42;;;;;;;12.15;88.18;94182.78;1756234;81;21039;-68
2022/09/28 02:16:55;;;;;;;5.03;3.02;;;;;;;12.19;88.13;94186.97;1723227;82;21012;-69
2022/09/28 02:19:29;;;;;;;4.72;3.00;;;;;;;12.22;87.78;94191.27;1729660;82;21077;-69
2022/09/28 02:22:10;;;;;;;5.08;4.15;;;;;;;12.23;87.73;94198.28;1757238;82;21025;-68
2022/09/28 02:24:59;;;;;;;6.58;5.17;;;;;;;12.27;87.76;94198.07;1750081;81;21037;-69
2022/09/28 02:28:00;;;;;;;5.55;4.47;;;;;;;12.36;87.72;94202.52;1753790;82;21025;-68
2022/09/28 02:30:35;;;;;;;5.50;4.17;;;;;;;12.42;87.42;94209.67;1755022;82;21431;-69
2022/09/28 02:33:13;;;;;;;6.50;4.78;;;;;;;12.45;87.22;94214.00;1754938;82;21000;-68
2022/09/28 02:35:41;;;;;;;6.70;4.62;;;;;;;12.47;87.15;94214.31;1754916;82;21056;-68
2022/09/28 02:38:11;;;;;;;4.75;3.70;;;;;;;12.46;87.03;94215.23;1754786;82;21039;-68
2022/09/28 02:40:40;;;;;;;4.33;3.58;;;;;;;12.46;86.93;94209.94;1755042;82;21048;-68
2022/09/28 02:43:37;;;;;;;4.75;3.25;;;;;;;12.50;86.89;94209.34;1755014;82;21506;-69
2022/09/28 02:46:35;;;;;;;4.35;3.95;;;;;;;12.48;86.73;94211.20;1753163;82;21080;-69
2022/09/28 02:49:16;;;;;;;4.33;3.70;;;;;;;12.50;86.73;94209.34;1754624;82;21087;-68
2022/09/28 02:52:09;;;;;;;5.20;3.72;;;;;;;12.50;86.72;94213.31;1754406;82;21123;-68
2022/09/28 02:54:59;;;;;;;3.70;2.90;;;;;;;12.48;86.95;94212.05;1755034;82;21096;-69
2022/09/28 02:57:41;;;;;;;3.10;2.72;;;;;;;12.47;86.54;94223.57;1755191;82;20977;-69
2022/09/28 03:00:21;;;;;;;3.27;2.52;;;;;;;12.48;86.40;94223.95;1753748;82;21135;-69
2022/09/28 03:03:12;;;;;;;3.72;2.58;;;;;;;12.46;86.35;94219.66;1755179;82;21068;-68
2022/09/28 03:06:06;;;;;;;3.87;2.67;;;;;;;12.46;86.03;94224.48;1754374;82;21519;-68
2022/09/28 03:08:46;;;;;;;4.65;2.35;;;;;;;12.47;85.94;94240.77;1754526;82;21088;-68
2022/09/28 03:11:30;;;;;;;3.45;2.20;;;;;;;12.46;85.64;94238.19;1754850;82;21522;-68
2022/09/28 03:13:57;;;;;;;3.05;2.02;;;;;;;12.44;85.20;94250.62;1753385;82;21040;-68
2022/09/28 03:16:27;;;;;;;2.12;1.85;;;;;;;12.39;84.39;94253.95;1749532;82;21040;-68
2022/09/28 03:18:54;;;;;;;3.20;2.42;;;;;;;12.34;84.16;94260.30;1755198;82;20992;-68
2022/09/28 03:21:20;;;;;;;3.22;2.17;;;;;;;12.36;84.43;94261.56;1754922;81;21016;-68
2022/09/28 03:23:47;;;;;;;2.95;2.27;;;;;;;12.34;84.43;94258.12;1752785;82;21017;-68
2022/09/28 03:26:15;;;;;;;2.57;2.20;;;;;;;12.35;84.56;94261.19;1749804;82;21052;-69
2022/09/28 03:28:43;;;;;;;4.25;2.00;;;;;;;12.35;84.47;94270.44;1749094;82;21151;-69
2022/09/28 03:31:11;;;;;;;1.90;1.70;;;;;;;12.36;84.24;94279.23;1749655;82;21064;-69
2022/09/28 03:33:38;;;;;;;3.15;1.60;;;;;;;12.35;84.06;94282.34;1749475;82;20981;-69
2022/09/28 03:36:07;;;;;;;2.92;1.30;;;;;;;12.34;83.81;94285.42;1749428;82;21511;-69
2022/09/28 03:38:34;;;;;;;1.67;1.30;;;;;;;12.32;81.91;94286.42;1749421;82;21123;-69
2022/09/28 03:41:01;;;;;;;1.05;0.93;;;;;;;12.28;82.25;94284.41;1749070;82;21510;-68
2022/09/28 03:43:30;;;;;;;1.42;1.32;;;;;;;12.26;80.06;94284.08;1749262;82;21483;-69
2022/09/28 03:46:00;;;;;;;2.30;1.12;;;;;;;12.27;80.50;94297.24;1749225;82;21136;-68
2022/09/28 03:48:33;;;;;;;0.80;0.80;;;;;;;12.28;81.05;94285.72;1749290;82;21032;-68
2022/09/28 03:51:03;;;;;;;1.92;1.00;;;;;;;12.25;81.12;94283.70;1749366;82;21080;-68
2022/09/28 03:53:30;;;;;;;1.65;0.80;;;;;;;12.18;79.66;94284.91;1749598;82;20989;-68
2022/09/28 03:56:13;;;;;;;1.05;0.93;;;;;;;12.10;80.31;94284.78;1749377;82;21165;-68
2022/09/28 03:58:41;;;;;;;5.28;4.78;;;;;;;11.99;78.49;94271.64;1749356;82;21545;-68
2022/09/28 04:01:12;;;;;;;4.42;1.30;;;;;;;11.94;79.64;94286.86;1749525;82;21479;-68
2022/09/28 04:03:39;;;;;;;2.62;0.70;;;;;;;11.87;79.20;94292.90;1749352;82;21061;-68
2022/09/28 04:06:05;;;;;;;1.67;1.07;;;;;;;11.84;79.40;94298.27;1749428;82;20997;-69
2022/09/28 04:08:32;;;;;;;2.37;2.08;;;;;;;11.77;79.96;94307.37;1749235;82;21005;-67
2022/09/28 04:11:00;;;;;;;3.60;1.30;;;;;;;11.70;80.27;94315.59;1749487;82;20992;-68
2022/09/28 04:13:29;;;;;;;3.45;3.10;;;;;;;11.65;80.39;94316.72;1749414;82;21545;-69
2022/09/28 04:15:58;;;;;;;2.77;1.30;;;;;;;11.55;79.67;94323.33;1723602;82;21052;-69
2022/09/28 04:18:28;;;;;;;1.15;1.00;;;;;;;11.47;80.10;94325.83;1749492;82;21487;-69
2022/09/28 04:21:08;;;;;;;1.62;0.80;;;;;;;11.37;80.53;94326.29;1753028;82;21024;-68
2022/09/28 04:23:39;;;;;;;1.10;1.00;;;;;;;11.22;80.89;94336.55;1743818;82;21052;-68
2022/09/28 04:26:16;;;;;;;10.05;2.85;;;;;;;11.14;81.24;94333.38;1723064;83;21028;-69
2022/09/28 04:31:38;;;;;;;2.22;1.80;;;;;;;11.01;81.81;94336.98;1727346;83;21012;-68
2022/09/28 04:34:05;;;;;;;3.50;2.00;;;;;;;10.95;82.11;94335.89;1727447;83;20977;-69
2022/09/28 04:36:32;;;;;;;1.80;1.40;;;;;;;10.88;82.49;94332.23;1726838;83;21020;-69
2022/09/28 04:38:59;;;;;;;1.30;1.20;;;;;;;10.87;82.62;94341.09;1727105;83;21085;-69
2022/09/28 04:41:27;;;;;;;0.78;0.78;;;;;;;10.83;82.58;94336.38;1727496;83;21475;-69
2022/09/28 04:43:54;;;;;;;2.20;1.12;;;;;;;10.79;83.01;94335.65;1727452;83;20997;-68
2022/09/28 04:46:21;;;;;;;2.20;1.65;;;;;;;10.74;83.33;94340.25;1727223;83;21104;-69
2022/09/28 04:48:52;;;;;;;4.75;1.50;;;;;;;10.71;83.59;94341.70;1727110;83;21052;-68
2022/09/28 04:51:23;;;;;;;6.80;1.52;;;;;;;10.76;84.02;94339.73;1726958;83;21124;-69
2022/09/28 04:53:50;;;;;;;3.15;1.50;;;;;;;10.79;83.92;94337.44;1727386;83;21024;-69
2022/09/28 04:56:19;;;;;;;2.05;1.80;;;;;;;10.85;83.82;94341.60;1727391;83;21028;-69
2022/09/28 04:58:45;;;;;;;4.37;2.27;;;;;;;10.85;83.62;94337.17;1727244;83;21056;-69
2022/09/28 05:01:16;;;;;;;5.15;2.83;;;;;;;10.86;83.45;94341.55;1722108;83;21056;-67
2022/09/28 05:03:51;;;;;;;3.62;2.33;;;;;;;10.85;83.40;94336.33;1705364;83;21187;-66
2022/09/28 05:06:22;;;;;;;3.80;2.90;;;;;;;10.83;83.39;94350.89;1747329;81;21480;-72
2022/09/28 05:08:51;;;;;;;4.90;2.25;;;;;;;10.84;83.34;94351.30;1747890;82;21547;-68
2022/09/28 05:11:20;;;;;;;6.20;4.08;;;;;;;10.82;83.33;94344.76;1749590;82;21006;-69
2022/09/28 05:13:49;;;;;;;4.92;2.60;;;;;;;10.83;83.25;94350.89;1749465;82;21046;-69
2022/09/28 05:16:17;;;;;;;5.83;2.92;;;;;;;10.82;83.22;94354.45;1749230;82;21549;-71
2022/09/28 05:19:02;;;;;;;2.50;2.00;;;;;;;10.83;83.18;94358.80;1748849;82;21105;-66
2022/09/28 05:21:29;;;;;;;2.80;2.60;;;;;;;10.81;83.14;94361.52;1748898;82;21101;-73
2022/09/28 05:23:57;;;;;;;3.58;2.52;;;;;;;10.80;83.11;94354.50;1757749;80;21038;-69
2022/09/28 05:26:24;;;;;;;3.33;2.60;;;;;;;10.79;83.02;94355.91;1780847;80;21065;-68
2022/09/28 05:28:51;;;;;;;3.22;2.50;;;;;;;10.81;83.05;94348.80;1780710;80;21551;-66
2022/09/28 05:31:22;;;;;;;4.90;2.45;;;;;;;10.81;83.04;94353.60;1726130;80;21031;-73
2022/09/28 05:33:50;;;;;;;2.62;2.20;;;;;;;10.85;83.24;94359.61;1753217;80;21019;-67
2022/09/28 05:36:17;;;;;;;4.37;1.70;;;;;;;10.93;83.14;94357.52;1785089;80;21516;-68
2022/09/28 05:38:44;;;;;;;3.02;1.80;;;;;;;11.02;83.09;94352.34;1781229;80;21089;-65
2022/09/28 05:41:11;;;;;;;1.27;1.15;;;;;;;11.12;83.02;94358.97;1754747;80;21008;-70
2022/09/28 05:43:39;;;;;;;2.10;1.17;;;;;;;11.20;82.88;94359.52;1752577;82;21115;-74
2022/09/28 05:46:06;;;;;;;3.22;1.30;;;;;;;11.29;82.75;94364.02;1756612;81;21028;-67
2022/09/28 05:48:34;;;;;;;3.05;1.45;;;;;;;11.36;81.94;94366.80;1752895;81;21068;-67
2022/09/28 05:51:02;;;;;;;3.08;1.65;;;;;;;11.43;81.69;94372.23;1753055;82;21030;-69
2022/09/28 05:53:29;;;;;;;1.55;1.25;;;;;;;11.44;81.55;94365.58;1753439;82;20989;-70
2022/09/28 05:55:58;;;;;;;1.35;1.25;;;;;;;11.52;81.77;94355.16;1753161;82;21047;-68
2022/09/28 05:58:25;;;;;;;3.25;1.85;;;;;;;11.60;80.96;94345.97;1752418;82;22102;-70
2022/09/28 06:00:55;;;;;;;1.60;1.47;;;;;;;11.67;80.54;94352.72;1752520;82;21049;-66
2022/09/28 06:03:22;;;;;;;0.98;0.88;;;;;;;11.66;79.71;94343.52;1752705;82;21187;-68
2022/09/28 06:05:49;;;;;;;0.80;0.80;;;;;;;11.72;79.56;94345.92;1752782;82;21078;-67
2022/09/28 06:08:15;;;;;;;2.27;1.00;;;;;;;11.76;78.72;94355.88;1752637;82;21068;-67
2022/09/28 06:10:44;;;;;;;2.20;1.30;;;;;;;11.79;79.11;94371.16;1753008;80;21001;-68
2022/09/28 06:13:11;;;;;;;1.40;1.00;;;;;;;11.82;78.57;94371.03;1752680;82;21014;-72
2022/09/28 06:15:41;;;;;;;1.57;0.98;;;;;;;11.86;79.05;94375.27;1752187;82;21064;-71
2022/09/28 06:18:13;;;;;;;1.72;1.15;;;;;;;11.93;78.63;94379.84;1760579;80;21105;-69
2022/09/28 06:20:42;;;;;;;2.00;1.10;;;;;;;11.99;78.32;94377.39;1761475;80;20975;-66
2022/09/28 06:23:12;;;;;;;1.50;0.85;;;;;;;12.04;78.21;94385.50;1771001;80;21069;-66
2022/09/28 06:25:39;;;;;;;0.82;0.82;;;;;;;12.09;76.61;94394.09;1760554;80;21034;-70
2022/09/28 06:28:10;;;;;;;1.20;1.00;;;;;;;12.16;77.31;94381.94;1781791;80;21022;-67
2022/09/28 06:30:40;;;;;;;1.30;1.20;;;;;;;12.27;77.11;94380.55;1779241;81;21026;-67
2022/09/28 06:33:13;;;;;;;1.82;1.20;;;;;;;12.32;76.09;94377.67;1779213;80;21043;-68
2022/09/28 06:35:41;;;;;;;3.22;1.40;;;;;;;12.35;75.62;94384.17;1779559;81;20975;-71
2022/09/28 06:38:08;;;;;;;3.83;1.75;;;;;;;12.40;75.91;94390.12;1779552;81;21478;-68
2022/09/28 06:40:36;;;;;;;2.12;1.40;;;;;;;12.53;74.93;94384.66;1778929;81;21025;-71
2022/09/28 06:43:13;;;;;;;3.52;1.20;;;;;;;12.72;75.34;94385.13;1779387;80;20995;-68
2022/09/28 06:45:59;;;;;;;1.82;1.40;;;;;;;12.84;74.33;94382.38;1779091;81;21058;-68
2022/09/28 06:48:44;;;;;;;4.83;1.30;;;;;;;12.87;73.65;94387.53;1779339;81;21022;-70
2022/09/28 06:51:13;;;;;;;4.10;0.90;;;;;;;12.96;73.48;94388.44;1779065;80;21454;-72
2022/09/28 06:53:42;;;;;;;1.17;0.78;;;;;;;13.01;70.60;94385.58;1777205;80;21090;-67
2022/09/28 06:56:10;;;;;;;1.22;1.10;;;;;;;12.93;68.97;94380.64;1778304;81;21036;-70
2022/09/28 06:58:37;;;;;;;4.42;1.40;;;;;;;12.92;71.05;94392.14;1779389;81;21059;-72
2022/09/28 07:01:04;;;;;;;2.05;1.85;;;;;;;12.94;70.52;94395.11;1779898;81;21027;-74
2022/09/28 07:03:33;;;;;;;0.70;0.70;;;;;;;13.00;70.88;94403.22;1778034;80;21014;-72
2022/09/28 07:06:19;;;;;;;0.78;0.70;;;;;;;13.08;70.19;94405.06;1763905;80;21037;-72
2022/09/28 07:09:06;;;;;;;3.40;1.65;;;;;;;13.19;70.70;94401.90;1757222;80;21038;-72
2022/09/28 07:11:43;;;;;;;0.42;0.42;;;;;;;13.40;70.59;94404.86;1765036;80;21005;-71
2022/09/28 07:14:11;;;;;;;2.77;0.62;;;;;;;13.73;69.32;94394.00;1745206;82;21128;-79
2022/09/28 07:16:38;;;;;;;1.47;0.70;;;;;;;14.00;67.17;94398.38;1749520;82;21516;-67
2022/09/28 07:19:05;;;;;;;1.15;0.90;;;;;;;14.00;67.17;94398.38;1720228;83;21043;-71
2022/09/28 07:21:32;;;;;;;0.82;0.60;;;;;;;14.05;67.55;94393.23;1720457;83;21429;-67
2022/09/28 07:24:00;;;;;;;1.20;0.60;;;;;;;14.05;65.14;94391.05;1721071;83;21034;-70
2022/09/28 07:26:47;;;;;;;1.50;0.60;;;;;;;14.25;66.27;94408.12;1687373;84;21044;-67
2022/09/28 07:29:16;;;;;;;0.95;0.50;;;;;;;14.49;65.69;94409.97;1691810;84;21016;-70
2022/09/28 07:31:44;;;;;;;0.40;0.40;;;;;;;14.68;63.47;94418.31;1687665;80;21018;-72
2022/09/28 07:34:12;;;;;;;0.50;0.50;;;;;;;14.86;63.68;94409.82;1778645;80;21077;-73
2022/09/28 07:36:41;;;;;;;1.02;0.60;;;;;;;14.88;63.27;94421.22;1766791;80;21019;-68
2022/09/28 07:39:08;;;;;;;0.88;0.78;;;;;;;14.81;62.54;94425.14;1778129;81;21604;-68
2022/09/28 07:41:35;;;;;;;2.87;1.00;;;;;;;14.72;62.00;94419.88;1779376;81;21046;-72
2022/09/28 07:44:06;;;;;;;6.03;1.87;;;;;;;14.70;63.66;94423.08;1778511;80;21070;-68
2022/09/28 07:46:36;;;;;;;1.60;1.00;;;;;;;14.60;63.39;94423.17;1778360;81;21059;-70
2022/09/28 07:49:04;;;;;;;0.80;0.50;;;;;;;14.55;63.22;94416.78;1779217;80;20999;-70
2022/09/28 07:51:50;;;;;;;0.78;0.78;;;;;;;14.53;63.18;94420.42;1779254;81;21018;-66
2022/09/28 07:54:24;;;;;;;1.15;0.70;;;;;;;14.60;63.18;94419.20;1779790;80;21019;-68
2022/09/28 07:56:58;;;;;;;0.78;0.78;;;;;;;14.81;62.63;94415.38;1740281;80;20994;-69
2022/09/28 07:59:27;;;;;;;0.80;0.70;;;;;;;15.04;61.01;94406.16;1779708;80;21046;-70
2022/09/28 08:02:13;;;;;;;1.02;0.62;;;;;;;15.09;61.81;94416.09;1778117;81;21150;-70
2022/09/28 08:04:40;;;;;;;1.42;0.72;;;;;;;15.04;61.28;94430.53;1779385;81;21031;-66
2022/09/28 08:07:11;;;;;;;4.80;0.85;;;;;;;14.97;62.68;94430.03;1775635;81;21117;-69
2022/09/28 08:09:39;;;;;;;1.77;0.72;;;;;;;14.96;62.21;94440.73;1778896;80;21106;-73
2022/09/28 08:12:24;;;;;;;1.10;0.78;;;;;;;14.98;62.87;94436.20;1779605;81;21030;-74
2022/09/28 08:14:58;;;;;;;2.67;0.75;;;;;;;14.89;61.87;94443.73;1777921;80;21015;-74
2022/09/28 08:17:39;;;;;;;1.60;0.88;;;;;;;14.86;62.58;94446.52;1719306;80;21067;-75
2022/09/28 08:22:54;;;;;;;1.40;0.60;;;;;;;14.80;62.13;94443.36;1779649;81;21030;-71
2022/09/28 08:25:20;;;;;;;2.47;1.25;;;;;;;14.78;62.26;94442.58;1785769;80;21003;-70
2022/09/28 08:27:48;;;;;;;1.10;1.00;;;;;;;14.73;62.09;94442.81;1784841;80;21312;-76
2022/09/28 08:30:15;;;;;;;1.45;0.90;;;;;;;14.71;62.10;94447.34;1783980;80;21060;-78
2022/09/28 08:32:50;;;;;;;0.80;0.55;;;;;;;14.68;62.44;94451.02;1782106;80;21066;-70
2022/09/28 08:35:35;;;;;;;3.05;0.65;;;;;;;14.77;63.02;94460.31;1784475;80;20995;-76
2022/09/28 08:38:08;;;;;;;0.98;0.60;;;;;;;14.80;61.93;94465.45;1784017;80;21029;-77
2022/09/28 08:40:59;;;;;;;4.00;0.80;;;;;;;14.80;61.99;94468.59;1734596;80;21474;-74
2022/09/28 08:43:54;;;;;;;0.82;0.75;;;;;;;14.77;61.61;94477.58;1775764;80;21020;-73
2022/09/28 08:46:33;;;;;;;2.37;0.90;;;;;;;14.75;61.46;94470.16;1773087;80;21078;-73
2022/09/28 08:49:32;;;;;;;1.95;0.80;;;;;;;14.74;61.89;94470.22;1819496;78;21002;-73
2022/09/28 08:52:11;;;;;;;1.92;0.72;;;;;;;14.75;61.44;94465.31;1803236;77;21060;-72
2022/09/28 08:55:05;;;;;;;2.25;0.98;;;;;;;14.74;60.61;94468.89;1812388;78;21468;-77
2022/09/28 08:57:51;;;;;;;2.45;0.68;;;;;;;14.67;59.90;94460.41;1820543;78;20986;-75
2022/09/28 09:00:36;;;;;;;1.87;1.12;;;;;;;14.70;60.32;94461.09;1818757;78;20962;-73
2022/09/28 09:03:08;;;;;;;4.80;1.25;;;;;;;14.69;59.92;94469.13;1821151;78;21483;-67
2022/09/28 09:05:52;;;;;;;0.88;0.78;;;;;;;14.71;59.88;94465.93;1818113;78;21464;-67
2022/09/28 09:08:44;;;;;;;4.08;0.90;;;;;;;14.75;60.38;94461.34;1801373;78;21134;-75
2022/09/28 09:11:37;;;;;;;1.45;0.70;;;;;;;14.85;59.75;94453.27;1818721;78;20981;-73
2022/09/28 09:14:27;;;;;;;0.90;0.80;;;;;;;14.89;59.61;94458.78;1819903;78;21077;-70
2022/09/28 09:17:00;;;;;;;1.77;0.98;;;;;;;14.98;59.75;94462.28;1733219;80;21052;-69
2022/09/28 09:20:14;;;;;;;2.00;1.32;;;;;;;15.06;58.11;94445.92;1796662;80;21053;-79
2022/09/28 09:22:54;;;;;;;7.55;0.90;;;;;;;15.15;58.71;94456.06;1798078;80;20991;-71
2022/09/28 09:25:32;;;;;;;1.12;0.70;;;;;;;15.24;58.64;94444.91;1797130;80;21107;-71
2022/09/28 09:28:34;;;;;;;0.78;0.53;;;;;;;15.29;57.25;94449.50;1792863;80;21041;-73
2022/09/28 09:31:16;;;;;;;0.68;0.50;;;;;;;15.34;57.35;94449.25;1793672;80;21037;-72
2022/09/28 09:34:02;;;;;;;0.70;0.65;;;;;;;15.40;57.17;94454.72;1793092;80;21013;-72
2022/09/28 09:37:10;;;;;;;2.47;0.50;;;;;;;15.40;55.77;94452.91;1792613;80;21546;-70
2022/09/28 09:39:54;;;;;;;0.30;0.30;;;;;;;15.52;55.25;94450.91;1700412;80;21060;-73
2022/09/28 09:42:31;;;;;;;0.57;0.37;;;;;;;15.52;48.39;94448.69;1736039;80;21515;-70
2022/09/28 09:45:47;;;;;;;0.20;0.20;;;;;;;15.59;50.61;94448.73;1787309;78;21014;-69
2022/09/28 09:48:56;;;;;;;0.37;0.30;;;;;;;15.55;52.61;94452.53;1784827;80;20999;-69
2022/09/28 09:51:50;;;;;;;0.62;0.40;;;;;;;15.71;55.17;94452.06;1783761;80;21565;-69
2022/09/28 09:54:25;;;;;;;2.77;0.50;;;;;;;15.81;55.56;94447.56;1783024;80;20988;-68
2022/09/28 09:57:02;;;;;;;1.57;0.50;;;;;;;15.87;53.08;94448.52;1795830;78;21069;-69
2022/09/28 09:59:47;;;;;;;2.95;0.82;;;;;;;15.92;52.92;94456.62;1823748;78;22305;-71
2022/09/28 10:02:32;;;;;;;2.17;1.50;;;;;;;16.00;52.39;94461.05;1824130;78;21010;-74
2022/09/28 10:05:14;;;;;;;1.10;0.90;;;;;;;16.07;52.64;94465.52;1824843;78;21053;-73
2022/09/28 10:08:04;;;;;;;1.22;0.80;;;;;;;16.18;51.18;94459.12;1788287;78;21014;-72
2022/09/28 10:10:47;;;;;;;4.58;1.20;;;;;;;16.28;52.14;94457.22;1786550;80;21881;-73
2022/09/28 10:13:14;;;;;;;1.30;0.60;;;;;;;16.37;51.47;94456.69;1825839;78;21045;-73
2022/09/28 10:15:42;;;;;;;0.88;0.60;;;;;;;16.50;49.72;94460.80;1824875;78;20990;-75
2022/09/28 10:18:19;;;;;;;1.32;0.70;;;;;;;16.53;49.69;94465.94;1824027;78;20979;-73
2022/09/28 10:21:05;;;;;;;0.68;0.50;;;;;;;16.58;49.56;94462.53;1786637;80;21052;-73
2022/09/28 10:23:38;;;;;;;1.57;0.68;;;;;;;16.70;48.47;94456.95;1824097;78;21003;-74
2022/09/28 10:26:23;;;;;;;1.37;0.80;;;;;;;16.84;46.74;94461.85;1790698;80;21528;-74
2022/09/28 10:28:53;;;;;;;1.10;0.60;;;;;;;17.13;47.95;94448.52;1763979;81;21624;-74
2022/09/28 10:31:44;;;;;;;1.10;0.90;;;;;;;17.49;46.04;94449.84;1765143;81;20988;-75
2022/09/28 10:34:17;;;;;;;4.50;2.20;;;;;;;17.67;44.18;94440.65;1795542;80;21055;-75
2022/09/28 10:36:54;;;;;;;3.50;1.32;;;;;;;17.88;45.00;94439.75;1795900;80;21003;-75
2022/09/28 10:39:29;;;;;;;3.20;1.65;;;;;;;18.10;43.80;94439.20;1795925;80;21526;-74
2022/09/28 10:42:02;;;;;;;1.52;0.90;;;;;;;18.20;43.92;94435.44;1796174;79;21051;-74
2022/09/28 10:44:32;;;;;;;1.60;0.98;;;;;;;18.50;43.57;94429.84;1796061;80;21016;-75
2022/09/28 10:47:06;;;;;;;1.52;0.80;;;;;;;18.91;42.40;94429.31;1796382;80;21000;-75
2022/09/28 10:49:40;;;;;;;2.45;1.10;;;;;;;19.39;42.34;94428.98;1795744;80;21043;-75
2022/09/28 10:52:40;;;;;;;2.05;1.10;;;;;;;19.57;41.93;94434.82;1795877;80;21004;-74
2022/09/28 10:55:31;;;;;;;1.67;1.05;;;;;;;19.54;43.66;94443.08;1791254;80;21004;-74
2022/09/28 10:57:59;;;;;;;3.25;2.22;;;;;;;19.77;43.74;94439.25;1795594;80;21452;-74
2022/09/28 11:00:41;;;;;;;1.65;0.68;;;;;;;20.22;43.10;94438.16;1794461;80;21043;-75
2022/09/28 11:03:23;;;;;;;1.50;0.90;;;;;;;20.77;43.71;94433.15;1795853;80;21468;-74
2022/09/28 11:06:06;;;;;;;1.75;1.20;;;;;;;21.23;40.68;94427.71;1795945;80;21038;-75
2022/09/28 11:08:44;;;;;;;1.72;1.00;;;;;;;21.61;40.16;94426.02;1764153;80;20998;-75
2022/09/28 11:11:16;;;;;;;1.90;0.88;;;;;;;21.92;39.38;94426.70;1768091;80;20987;-75
2022/09/28 11:13:47;;;;;;;2.52;0.60;;;;;;;22.20;38.31;94424.84;1796121;80;20986;-75
2022/09/28 11:16:25;;;;;;;1.40;0.60;;;;;;;22.34;37.15;94425.02;1796012;80;21014;-75
2022/09/28 11:18:53;;;;;;;0.80;0.50;;;;;;;22.61;38.87;94429.91;1795956;80;21041;-76
2022/09/28 11:21:27;;;;;;;1.52;0.60;;;;;;;22.97;38.50;94428.25;1796145;80;21057;-76
2022/09/28 11:24:15;;;;;;;1.90;0.62;;;;;;;23.30;36.50;94419.11;1795872;80;21014;-76
2022/09/28 11:26:51;;;;;;;2.15;0.37;;;;;;;23.59;36.25;94418.41;1792614;80;21002;-75
2022/09/28 11:29:36;;;;;;;1.70;0.60;;;;;;;23.83;35.22;94422.11;1789162;80;20979;-76
2022/09/28 11:32:11;;;;;;;1.27;0.40;;;;;;;24.22;35.52;94420.36;1778405;80;21030;-76
2022/09/28 11:34:45;;;;;;;0.55;0.55;;;;;;;24.48;33.37;94425.23;1786794;80;21010;-76
2022/09/28 11:37:36;;;;;;;2.45;0.37;;;;;;;24.61;33.15;94431.19;1790330;80;21490;-76
2022/09/28 11:40:36;;;;;;;1.32;0.40;;;;;;;24.76;32.23;94438.36;1790122;80;21496;-75
2022/09/28 11:43:30;;;;;;;1.85;0.45;;;;;;;24.84;32.04;94431.23;1789966;80;21074;-76
2022/09/28 11:46:01;;;;;;;0.37;0.37;;;;;;;24.86;31.60;94428.41;1790258;80;21038;-75
2022/09/28 11:48:42;;;;;;;0.73;0.30;;;;;;;25.22;29.67;94422.78;1790434;80;21062;-76
2022/09/28 11:51:17;;;;;;;0.50;0.30;;;;;;;25.39;30.00;94425.20;1790281;80;21014;-75
2022/09/28 11:53:50;;;;;;;1.27;0.30;;;;;;;25.50;29.71;94426.02;1788588;80;21062;-75
2022/09/28 11:56:43;;;;;;;0.82;0.30;;;;;;;25.73;30.35;94415.68;1789845;80;21058;-75
2022/09/28 11:59:30;;;;;;;0.47;0.47;;;;;;;25.98;28.46;94419.09;1790298;80;21034;-76
2022/09/28 12:02:20;;;;;;;1.65;0.30;;;;;;;26.09;28.18;94419.38;1790434;80;21022;-76
2022/09/28 12:04:57;;;;;;;1.30;0.50;;;;;;;26.07;27.36;94417.32;1789534;80;21011;-76
2022/09/28 12:07:30;;;;;;;0.93;0.40;;;;;;;26.26;28.29;94421.27;1790165;80;21500;-75
2022/09/28 12:10:09;;;;;;;0.50;0.50;;;;;;;26.34;28.82;94424.55;1789464;80;21500;-76
2022/09/28 12:12:49;;;;;;;0.70;0.45;;;;;;;26.34;28.82;94424.55;1790274;80;20994;-75
2022/09/28 12:15:24;;;;;;;0.30;0.30;;;;;;;26.46;26.77;94421.10;1783224;80;20998;-75
2022/09/28 12:18:08;;;;;;;1.45;0.40;;;;;;;26.67;26.35;94423.05;1789884;80;21054;-75